sensor_id;sensor_type;location;lat;lon;timestamp;P1;durP1;ratioP1;P2;durP2;ratioP2
20146;SDS011;10234;50.856;15.716;2023-03-29T00:01:43;8.70;;;4.93;;
20146;SDS011;10234;50.856;15.716;2023-03-29T00:04:10;7.32;;;5.32;;
20146;SDS011;10234;50.856;15.716;2023-03-29T00:06:37;8.38;;;5.25;;
20146;SDS011;10234;50.856;15.716;2023-03-29T00:09:06;20.08;;;7.90;;
20146;SDS011;10234;50.856;15.716;2023-03-29T00:11:35;16.17;;;7.15;;
20146;SDS011;10234;50.856;15.716;2023-03-29T00:14:03;15.25;;;7.10;;
20146;SDS011;10234;50.856;15.716;2023-03-29T00:16:30;19.85;;;8.88;;
20146;SDS011;10234;50.856;15.716;2023-03-29T00:18:57;29.08;;;11.52;;
20146;SDS011;10234;50.856;15.716;2023-03-29T00:21:24;25.83;;;9.93;;
20146;SDS011;10234;50.856;15.716;2023-03-29T00:23:51;20.75;;;8.55;;
20146;SDS011;10234;50.856;15.716;2023-03-29T00:26:18;26.58;;;10.45;;
20146;SDS011;10234;50.856;15.716;2023-03-29T00:28:47;27.33;;;8.75;;
20146;SDS011;10234;50.856;15.716;2023-03-29T00:31:14;15.35;;;7.30;;
20146;SDS011;10234;50.856;15.716;2023-03-29T00:33:42;17.97;;;8.13;;
20146;SDS011;10234;50.856;15.716;2023-03-29T00:36:09;19.23;;;7.17;;
20146;SDS011;10234;50.856;15.716;2023-03-29T00:38:37;15.00;;;7.45;;
20146;SDS011;10234;50.856;15.716;2023-03-29T00:41:07;13.93;;;6.47;;
20146;SDS011;10234;50.856;15.716;2023-03-29T00:43:52;9.60;;;5.37;;
20146;SDS011;10234;50.856;15.716;2023-03-29T00:46:20;9.80;;;5.47;;
20146;SDS011;10234;50.856;15.716;2023-03-29T00:48:47;8.93;;;5.35;;
20146;SDS011;10234;50.856;15.716;2023-03-29T00:51:16;8.52;;;5.63;;
20146;SDS011;10234;50.856;15.716;2023-03-29T00:53:46;12.18;;;5.90;;
20146;SDS011;10234;50.856;15.716;2023-03-29T00:56:16;15.57;;;8.10;;
20146;SDS011;10234;50.856;15.716;2023-03-29T00:58:48;10.73;;;5.80;;
20146;SDS011;10234;50.856;15.716;2023-03-29T01:01:22;9.90;;;5.43;;
20146;SDS011;10234;50.856;15.716;2023-03-29T01:03:56;9.80;;;5.43;;
20146;SDS011;10234;50.856;15.716;2023-03-29T01:06:27;11.60;;;5.10;;
20146;SDS011;10234;50.856;15.716;2023-03-29T01:08:58;7.43;;;5.00;;
20146;SDS011;10234;50.856;15.716;2023-03-29T01:11:29;9.73;;;4.38;;
20146;SDS011;10234;50.856;15.716;2023-03-29T01:14:03;10.73;;;5.22;;
20146;SDS011;10234;50.856;15.716;2023-03-29T01:16:31;10.48;;;6.25;;
20146;SDS011;10234;50.856;15.716;2023-03-29T01:19:02;9.52;;;4.63;;
20146;SDS011;10234;50.856;15.716;2023-03-29T01:21:32;10.53;;;4.87;;
20146;SDS011;10234;50.856;15.716;2023-03-29T01:24:16;8.82;;;5.45;;
20146;SDS011;10234;50.856;15.716;2023-03-29T01:26:56;9.70;;;5.05;;
20146;SDS011;10234;50.856;15.716;2023-03-29T01:29:31;10.43;;;5.57;;
20146;SDS011;10234;50.856;15.716;2023-03-29T01:34:40;13.02;;;5.78;;
20146;SDS011;10234;50.856;15.716;2023-03-29T01:37:13;11.00;;;5.40;;
20146;SDS011;10234;50.856;15.716;2023-03-29T01:39:46;10.60;;;5.60;;
20146;SDS011;10234;50.856;15.716;2023-03-29T01:42:20;9.60;;;4.95;;
20146;SDS011;10234;50.856;15.716;2023-03-29T01:44:57;10.10;;;4.60;;
20146;SDS011;10234;50.856;15.716;2023-03-29T01:47:36;12.85;;;5.38;;
20146;SDS011;10234;50.856;15.716;2023-03-29T01:50:11;10.95;;;5.40;;
20146;SDS011;10234;50.856;15.716;2023-03-29T01:52:41;12.82;;;5.90;;
20146;SDS011;10234;50.856;15.716;2023-03-29T01:55:15;10.40;;;5.05;;
20146;SDS011;10234;50.856;15.716;2023-03-29T01:57:46;12.13;;;5.63;;
20146;SDS011;10234;50.856;15.716;2023-03-29T02:00:18;8.32;;;5.30;;
20146;SDS011;10234;50.856;15.716;2023-03-29T02:02:48;12.68;;;6.50;;
20146;SDS011;10234;50.856;15.716;2023-03-29T02:05:18;10.57;;;6.70;;
20146;SDS011;10234;50.856;15.716;2023-03-29T02:07:46;8.68;;;6.22;;
20146;SDS011;10234;50.856;15.716;2023-03-29T02:10:14;8.02;;;5.28;;
20146;SDS011;10234;50.856;15.716;2023-03-29T02:12:43;9.88;;;5.55;;
20146;SDS011;10234;50.856;15.716;2023-03-29T02:15:10;9.95;;;5.60;;
20146;SDS011;10234;50.856;15.716;2023-03-29T02:17:39;8.38;;;5.03;;
20146;SDS011;10234;50.856;15.716;2023-03-29T02:20:09;12.60;;;6.28;;
20146;SDS011;10234;50.856;15.716;2023-03-29T02:22:44;11.57;;;5.95;;
20146;SDS011;10234;50.856;15.716;2023-03-29T02:25:13;13.05;;;6.90;;
20146;SDS011;10234;50.856;15.716;2023-03-29T02:27:41;11.45;;;5.88;;
20146;SDS011;10234;50.856;15.716;2023-03-29T02:30:09;13.90;;;7.57;;
20146;SDS011;10234;50.856;15.716;2023-03-29T02:32:42;13.45;;;6.78;;
20146;SDS011;10234;50.856;15.716;2023-03-29T02:35:15;14.23;;;7.43;;
20146;SDS011;10234;50.856;15.716;2023-03-29T02:37:47;13.18;;;7.60;;
20146;SDS011;10234;50.856;15.716;2023-03-29T02:40:18;13.02;;;7.65;;
20146;SDS011;10234;50.856;15.716;2023-03-29T02:42:48;15.38;;;7.43;;
20146;SDS011;10234;50.856;15.716;2023-03-29T02:45:15;16.20;;;7.50;;
20146;SDS011;10234;50.856;15.716;2023-03-29T02:47:46;16.67;;;7.63;;
20146;SDS011;10234;50.856;15.716;2023-03-29T02:50:16;12.57;;;6.97;;
20146;SDS011;10234;50.856;15.716;2023-03-29T02:52:45;14.48;;;6.97;;
20146;SDS011;10234;50.856;15.716;2023-03-29T02:55:18;16.67;;;6.88;;
20146;SDS011;10234;50.856;15.716;2023-03-29T02:57:48;12.23;;;6.65;;
20146;SDS011;10234;50.856;15.716;2023-03-29T03:00:16;12.35;;;6.10;;
20146;SDS011;10234;50.856;15.716;2023-03-29T03:02:46;10.98;;;6.18;;
20146;SDS011;10234;50.856;15.716;2023-03-29T03:05:14;9.35;;;5.40;;
20146;SDS011;10234;50.856;15.716;2023-03-29T03:07:42;10.45;;;5.50;;
20146;SDS011;10234;50.856;15.716;2023-03-29T03:10:10;10.40;;;5.97;;
20146;SDS011;10234;50.856;15.716;2023-03-29T03:12:37;9.90;;;5.85;;
20146;SDS011;10234;50.856;15.716;2023-03-29T03:15:04;11.02;;;5.78;;
20146;SDS011;10234;50.856;15.716;2023-03-29T03:17:32;11.35;;;5.80;;
20146;SDS011;10234;50.856;15.716;2023-03-29T03:20:07;8.90;;;5.68;;
20146;SDS011;10234;50.856;15.716;2023-03-29T03:22:38;10.98;;;5.32;;
20146;SDS011;10234;50.856;15.716;2023-03-29T03:25:06;11.13;;;4.97;;
20146;SDS011;10234;50.856;15.716;2023-03-29T03:27:35;12.13;;;5.20;;
20146;SDS011;10234;50.856;15.716;2023-03-29T03:30:03;10.43;;;4.60;;
20146;SDS011;10234;50.856;15.716;2023-03-29T03:32:31;11.30;;;5.00;;
20146;SDS011;10234;50.856;15.716;2023-03-29T03:35:01;10.88;;;5.32;;
20146;SDS011;10234;50.856;15.716;2023-03-29T03:37:31;9.98;;;5.05;;
20146;SDS011;10234;50.856;15.716;2023-03-29T03:39:58;9.48;;;5.00;;
20146;SDS011;10234;50.856;15.716;2023-03-29T03:42:26;9.90;;;4.90;;
20146;SDS011;10234;50.856;15.716;2023-03-29T03:44:53;7.47;;;4.60;;
20146;SDS011;10234;50.856;15.716;2023-03-29T03:47:21;8.88;;;5.05;;
20146;SDS011;10234;50.856;15.716;2023-03-29T03:49:48;9.35;;;4.43;;
20146;SDS011;10234;50.856;15.716;2023-03-29T03:52:15;8.55;;;5.30;;
20146;SDS011;10234;50.856;15.716;2023-03-29T03:54:44;8.88;;;4.70;;
20146;SDS011;10234;50.856;15.716;2023-03-29T03:57:12;8.43;;;4.63;;
20146;SDS011;10234;50.856;15.716;2023-03-29T03:59:39;8.07;;;4.88;;
20146;SDS011;10234;50.856;15.716;2023-03-29T04:02:06;7.03;;;4.35;;
20146;SDS011;10234;50.856;15.716;2023-03-29T04:04:34;9.55;;;5.20;;
20146;SDS011;10234;50.856;15.716;2023-03-29T04:07:01;7.50;;;4.88;;
20146;SDS011;10234;50.856;15.716;2023-03-29T04:09:29;11.38;;;5.15;;
20146;SDS011;10234;50.856;15.716;2023-03-29T04:11:58;7.38;;;4.22;;
20146;SDS011;10234;50.856;15.716;2023-03-29T04:14:26;9.65;;;4.80;;
20146;SDS011;10234;50.856;15.716;2023-03-29T04:16:55;11.05;;;4.50;;
20146;SDS011;10234;50.856;15.716;2023-03-29T04:19:22;8.30;;;4.70;;
20146;SDS011;10234;50.856;15.716;2023-03-29T04:21:50;9.10;;;4.30;;
20146;SDS011;10234;50.856;15.716;2023-03-29T04:24:17;8.93;;;4.55;;
20146;SDS011;10234;50.856;15.716;2023-03-29T04:26:45;8.07;;;4.95;;
20146;SDS011;10234;50.856;15.716;2023-03-29T04:29:14;7.63;;;5.20;;
20146;SDS011;10234;50.856;15.716;2023-03-29T04:31:41;9.18;;;4.07;;
20146;SDS011;10234;50.856;15.716;2023-03-29T04:34:08;7.28;;;4.00;;
20146;SDS011;10234;50.856;15.716;2023-03-29T04:36:35;8.32;;;5.00;;
20146;SDS011;10234;50.856;15.716;2023-03-29T04:39:02;7.90;;;4.90;;
20146;SDS011;10234;50.856;15.716;2023-03-29T04:41:32;9.57;;;4.25;;
20146;SDS011;10234;50.856;15.716;2023-03-29T04:43:59;8.55;;;4.40;;
20146;SDS011;10234;50.856;15.716;2023-03-29T04:46:29;8.70;;;5.00;;
20146;SDS011;10234;50.856;15.716;2023-03-29T04:48:56;11.10;;;4.60;;
20146;SDS011;10234;50.856;15.716;2023-03-29T04:51:23;6.55;;;4.45;;
20146;SDS011;10234;50.856;15.716;2023-03-29T04:53:50;8.63;;;4.60;;
20146;SDS011;10234;50.856;15.716;2023-03-29T04:56:17;7.75;;;4.88;;
20146;SDS011;10234;50.856;15.716;2023-03-29T04:58:44;10.93;;;5.68;;
20146;SDS011;10234;50.856;15.716;2023-03-29T05:01:11;14.00;;;7.05;;
20146;SDS011;10234;50.856;15.716;2023-03-29T05:03:39;15.27;;;8.70;;
20146;SDS011;10234;50.856;15.716;2023-03-29T05:06:08;25.80;;;12.23;;
20146;SDS011;10234;50.856;15.716;2023-03-29T05:08:36;19.92;;;8.70;;
20146;SDS011;10234;50.856;15.716;2023-03-29T05:11:04;18.52;;;8.85;;
20146;SDS011;10234;50.856;15.716;2023-03-29T05:13:32;14.80;;;8.10;;
20146;SDS011;10234;50.856;15.716;2023-03-29T05:16:00;17.02;;;7.38;;
20146;SDS011;10234;50.856;15.716;2023-03-29T05:18:28;18.90;;;8.45;;
20146;SDS011;10234;50.856;15.716;2023-03-29T05:20:57;15.43;;;7.57;;
20146;SDS011;10234;50.856;15.716;2023-03-29T05:23:28;13.32;;;6.38;;
20146;SDS011;10234;50.856;15.716;2023-03-29T05:25:55;11.77;;;6.80;;
20146;SDS011;10234;50.856;15.716;2023-03-29T05:28:23;14.25;;;8.25;;
20146;SDS011;10234;50.856;15.716;2023-03-29T05:30:57;18.48;;;10.02;;
20146;SDS011;10234;50.856;15.716;2023-03-29T05:33:26;23.42;;;11.18;;
20146;SDS011;10234;50.856;15.716;2023-03-29T05:36:01;24.75;;;11.40;;
20146;SDS011;10234;50.856;15.716;2023-03-29T05:38:29;26.63;;;12.25;;
20146;SDS011;10234;50.856;15.716;2023-03-29T05:40:56;20.60;;;11.18;;
20146;SDS011;10234;50.856;15.716;2023-03-29T05:43:23;18.55;;;10.25;;
20146;SDS011;10234;50.856;15.716;2023-03-29T05:45:51;18.85;;;10.18;;
20146;SDS011;10234;50.856;15.716;2023-03-29T05:48:19;20.77;;;10.82;;
20146;SDS011;10234;50.856;15.716;2023-03-29T05:50:46;18.17;;;9.77;;
20146;SDS011;10234;50.856;15.716;2023-03-29T05:53:15;19.80;;;10.82;;
20146;SDS011;10234;50.856;15.716;2023-03-29T05:55:43;18.02;;;9.38;;
20146;SDS011;10234;50.856;15.716;2023-03-29T05:58:10;16.63;;;9.30;;
20146;SDS011;10234;50.856;15.716;2023-03-29T06:00:38;15.82;;;9.32;;
20146;SDS011;10234;50.856;15.716;2023-03-29T06:03:06;13.68;;;8.70;;
20146;SDS011;10234;50.856;15.716;2023-03-29T06:05:33;15.30;;;8.65;;
20146;SDS011;10234;50.856;15.716;2023-03-29T06:08:01;18.23;;;9.05;;
20146;SDS011;10234;50.856;15.716;2023-03-29T06:10:29;14.95;;;8.48;;
20146;SDS011;10234;50.856;15.716;2023-03-29T06:12:57;11.93;;;7.35;;
20146;SDS011;10234;50.856;15.716;2023-03-29T06:15:24;12.18;;;7.53;;
20146;SDS011;10234;50.856;15.716;2023-03-29T06:17:51;12.70;;;8.02;;
20146;SDS011;10234;50.856;15.716;2023-03-29T06:20:19;13.50;;;7.72;;
20146;SDS011;10234;50.856;15.716;2023-03-29T06:22:46;14.75;;;7.97;;
20146;SDS011;10234;50.856;15.716;2023-03-29T06:25:31;11.88;;;7.07;;
20146;SDS011;10234;50.856;15.716;2023-03-29T06:27:59;14.65;;;7.57;;
20146;SDS011;10234;50.856;15.716;2023-03-29T06:30:27;16.30;;;8.95;;
20146;SDS011;10234;50.856;15.716;2023-03-29T06:32:57;15.48;;;8.65;;
20146;SDS011;10234;50.856;15.716;2023-03-29T06:35:27;14.38;;;9.02;;
20146;SDS011;10234;50.856;15.716;2023-03-29T06:37:54;20.35;;;11.10;;
20146;SDS011;10234;50.856;15.716;2023-03-29T06:40:21;17.60;;;9.68;;
20146;SDS011;10234;50.856;15.716;2023-03-29T06:42:50;18.17;;;11.57;;
20146;SDS011;10234;50.856;15.716;2023-03-29T06:45:21;23.52;;;12.57;;
20146;SDS011;10234;50.856;15.716;2023-03-29T06:47:49;23.85;;;11.35;;
20146;SDS011;10234;50.856;15.716;2023-03-29T06:50:16;13.73;;;8.68;;
20146;SDS011;10234;50.856;15.716;2023-03-29T06:52:43;17.95;;;9.95;;
20146;SDS011;10234;50.856;15.716;2023-03-29T06:55:11;26.65;;;23.10;;
20146;SDS011;10234;50.856;15.716;2023-03-29T06:57:40;15.40;;;9.90;;
20146;SDS011;10234;50.856;15.716;2023-03-29T07:00:09;15.23;;;9.27;;
20146;SDS011;10234;50.856;15.716;2023-03-29T07:02:42;17.10;;;8.50;;
20146;SDS011;10234;50.856;15.716;2023-03-29T07:05:09;15.18;;;9.18;;
20146;SDS011;10234;50.856;15.716;2023-03-29T07:07:38;18.58;;;11.30;;
20146;SDS011;10234;50.856;15.716;2023-03-29T07:10:25;15.75;;;9.52;;
20146;SDS011;10234;50.856;15.716;2023-03-29T07:12:56;16.38;;;9.73;;
20146;SDS011;10234;50.856;15.716;2023-03-29T07:15:25;13.75;;;8.80;;
20146;SDS011;10234;50.856;15.716;2023-03-29T07:17:53;14.38;;;7.90;;
20146;SDS011;10234;50.856;15.716;2023-03-29T07:20:21;18.13;;;9.18;;
20146;SDS011;10234;50.856;15.716;2023-03-29T07:22:49;16.80;;;9.38;;
20146;SDS011;10234;50.856;15.716;2023-03-29T07:25:17;13.52;;;8.73;;
20146;SDS011;10234;50.856;15.716;2023-03-29T07:27:45;14.52;;;8.90;;
20146;SDS011;10234;50.856;15.716;2023-03-29T07:30:13;12.85;;;7.78;;
20146;SDS011;10234;50.856;15.716;2023-03-29T07:32:43;10.35;;;5.53;;
20146;SDS011;10234;50.856;15.716;2023-03-29T07:35:12;8.75;;;6.25;;
20146;SDS011;10234;50.856;15.716;2023-03-29T07:37:41;7.15;;;3.80;;
20146;SDS011;10234;50.856;15.716;2023-03-29T07:40:15;3.53;;;2.42;;
20146;SDS011;10234;50.856;15.716;2023-03-29T07:42:47;4.22;;;2.20;;
20146;SDS011;10234;50.856;15.716;2023-03-29T07:45:14;4.00;;;1.77;;
20146;SDS011;10234;50.856;15.716;2023-03-29T07:47:43;5.80;;;2.33;;
20146;SDS011;10234;50.856;15.716;2023-03-29T07:50:10;3.38;;;1.70;;
20146;SDS011;10234;50.856;15.716;2023-03-29T07:52:38;5.35;;;1.75;;
20146;SDS011;10234;50.856;15.716;2023-03-29T07:55:06;3.63;;;1.40;;
20146;SDS011;10234;50.856;15.716;2023-03-29T07:57:34;2.35;;;1.40;;
20146;SDS011;10234;50.856;15.716;2023-03-29T08:00:01;3.45;;;1.80;;
20146;SDS011;10234;50.856;15.716;2023-03-29T08:02:36;3.60;;;1.85;;
20146;SDS011;10234;50.856;15.716;2023-03-29T08:05:05;3.30;;;1.50;;
20146;SDS011;10234;50.856;15.716;2023-03-29T08:07:33;3.22;;;1.40;;
20146;SDS011;10234;50.856;15.716;2023-03-29T08:10:00;4.13;;;1.20;;
20146;SDS011;10234;50.856;15.716;2023-03-29T08:12:28;5.35;;;1.45;;
20146;SDS011;10234;50.856;15.716;2023-03-29T08:14:55;4.13;;;1.45;;
20146;SDS011;10234;50.856;15.716;2023-03-29T08:17:22;3.28;;;1.40;;
20146;SDS011;10234;50.856;15.716;2023-03-29T08:19:50;2.90;;;1.20;;
20146;SDS011;10234;50.856;15.716;2023-03-29T08:22:18;4.05;;;1.33;;
20146;SDS011;10234;50.856;15.716;2023-03-29T08:24:46;3.85;;;1.38;;
20146;SDS011;10234;50.856;15.716;2023-03-29T08:27:13;2.85;;;1.23;;
20146;SDS011;10234;50.856;15.716;2023-03-29T08:29:41;4.20;;;1.45;;
20146;SDS011;10234;50.856;15.716;2023-03-29T08:32:08;2.67;;;1.90;;
20146;SDS011;10234;50.856;15.716;2023-03-29T08:34:36;3.97;;;1.63;;
20146;SDS011;10234;50.856;15.716;2023-03-29T08:37:03;3.45;;;1.67;;
20146;SDS011;10234;50.856;15.716;2023-03-29T08:39:32;4.95;;;2.50;;
20146;SDS011;10234;50.856;15.716;2023-03-29T08:42:03;3.05;;;1.80;;
20146;SDS011;10234;50.856;15.716;2023-03-29T08:44:48;2.60;;;1.40;;
20146;SDS011;10234;50.856;15.716;2023-03-29T08:47:24;1.75;;;1.55;;
20146;SDS011;10234;50.856;15.716;2023-03-29T08:49:59;4.03;;;1.77;;
20146;SDS011;10234;50.856;15.716;2023-03-29T08:52:30;5.15;;;2.47;;
20146;SDS011;10234;50.856;15.716;2023-03-29T08:55:02;4.57;;;1.60;;
20146;SDS011;10234;50.856;15.716;2023-03-29T08:57:34;2.38;;;1.55;;
20146;SDS011;10234;50.856;15.716;2023-03-29T09:00:07;4.75;;;1.73;;
20146;SDS011;10234;50.856;15.716;2023-03-29T09:02:47;4.00;;;1.45;;
20146;SDS011;10234;50.856;15.716;2023-03-29T09:05:19;2.85;;;1.25;;
20146;SDS011;10234;50.856;15.716;2023-03-29T09:07:49;4.68;;;1.55;;
20146;SDS011;10234;50.856;15.716;2023-03-29T09:10:19;1.20;;;1.02;;
20146;SDS011;10234;50.856;15.716;2023-03-29T09:12:53;1.83;;;1.17;;
20146;SDS011;10234;50.856;15.716;2023-03-29T09:15:33;2.85;;;1.27;;
20146;SDS011;10234;50.856;15.716;2023-03-29T09:18:10;1.67;;;1.40;;
20146;SDS011;10234;50.856;15.716;2023-03-29T09:20:46;4.05;;;1.50;;
20146;SDS011;10234;50.856;15.716;2023-03-29T09:23:28;2.97;;;1.38;;
20146;SDS011;10234;50.856;15.716;2023-03-29T09:26:25;2.28;;;1.10;;
20146;SDS011;10234;50.856;15.716;2023-03-29T09:28:59;2.50;;;1.40;;
20146;SDS011;10234;50.856;15.716;2023-03-29T09:31:33;1.45;;;1.27;;
20146;SDS011;10234;50.856;15.716;2023-03-29T09:34:04;2.25;;;1.20;;
20146;SDS011;10234;50.856;15.716;2023-03-29T09:36:39;3.63;;;1.80;;
20146;SDS011;10234;50.856;15.716;2023-03-29T09:39:15;3.33;;;1.67;;
20146;SDS011;10234;50.856;15.716;2023-03-29T09:41:45;1.95;;;1.20;;
20146;SDS011;10234;50.856;15.716;2023-03-29T09:44:17;3.08;;;1.50;;
20146;SDS011;10234;50.856;15.716;2023-03-29T09:46:48;4.40;;;1.55;;
20146;SDS011;10234;50.856;15.716;2023-03-29T09:49:20;3.33;;;1.30;;
20146;SDS011;10234;50.856;15.716;2023-03-29T09:51:51;2.60;;;1.33;;
20146;SDS011;10234;50.856;15.716;2023-03-29T09:54:24;3.75;;;1.75;;
20146;SDS011;10234;50.856;15.716;2023-03-29T09:56:52;3.10;;;1.40;;
20146;SDS011;10234;50.856;15.716;2023-03-29T09:59:20;3.63;;;1.98;;
20146;SDS011;10234;50.856;15.716;2023-03-29T10:01:47;2.08;;;1.60;;
20146;SDS011;10234;50.856;15.716;2023-03-29T10:04:16;3.25;;;1.73;;
20146;SDS011;10234;50.856;15.716;2023-03-29T10:06:45;1.73;;;1.30;;
20146;SDS011;10234;50.856;15.716;2023-03-29T10:09:15;4.03;;;1.48;;
20146;SDS011;10234;50.856;15.716;2023-03-29T10:11:45;2.63;;;1.40;;
20146;SDS011;10234;50.856;15.716;2023-03-29T10:14:17;2.10;;;1.20;;
20146;SDS011;10234;50.856;15.716;2023-03-29T10:16:46;1.63;;;1.23;;
20146;SDS011;10234;50.856;15.716;2023-03-29T10:19:20;2.40;;;1.25;;
20146;SDS011;10234;50.856;15.716;2023-03-29T10:21:48;3.15;;;1.17;;
20146;SDS011;10234;50.856;15.716;2023-03-29T10:24:17;2.05;;;1.17;;
20146;SDS011;10234;50.856;15.716;2023-03-29T10:26:45;2.30;;;1.50;;
20146;SDS011;10234;50.856;15.716;2023-03-29T10:29:13;1.40;;;1.27;;
20146;SDS011;10234;50.856;15.716;2023-03-29T10:31:42;3.20;;;1.30;;
20146;SDS011;10234;50.856;15.716;2023-03-29T10:34:09;2.85;;;1.20;;
20146;SDS011;10234;50.856;15.716;2023-03-29T10:36:40;3.05;;;1.45;;
20146;SDS011;10234;50.856;15.716;2023-03-29T10:39:12;1.85;;;1.35;;
20146;SDS011;10234;50.856;15.716;2023-03-29T10:41:41;2.33;;;1.27;;
20146;SDS011;10234;50.856;15.716;2023-03-29T10:44:23;3.50;;;1.40;;
20146;SDS011;10234;50.856;15.716;2023-03-29T10:46:54;3.13;;;1.38;;
20146;SDS011;10234;50.856;15.716;2023-03-29T10:49:22;2.63;;;1.20;;
20146;SDS011;10234;50.856;15.716;2023-03-29T10:51:50;3.08;;;1.50;;
20146;SDS011;10234;50.856;15.716;2023-03-29T10:54:18;2.75;;;1.63;;
20146;SDS011;10234;50.856;15.716;2023-03-29T10:56:48;3.17;;;1.42;;
20146;SDS011;10234;50.856;15.716;2023-03-29T10:59:24;2.22;;;1.33;;
20146;SDS011;10234;50.856;15.716;2023-03-29T11:02:00;3.30;;;1.75;;
20146;SDS011;10234;50.856;15.716;2023-03-29T11:04:48;3.03;;;1.13;;
20146;SDS011;10234;50.856;15.716;2023-03-29T11:07:28;2.78;;;1.35;;
20146;SDS011;10234;50.856;15.716;2023-03-29T11:10:03;3.85;;;1.10;;
20146;SDS011;10234;50.856;15.716;2023-03-29T11:12:49;1.48;;;1.23;;
20146;SDS011;10234;50.856;15.716;2023-03-29T11:15:25;2.63;;;1.73;;
20146;SDS011;10234;50.856;15.716;2023-03-29T11:18:01;4.78;;;1.48;;
20146;SDS011;10234;50.856;15.716;2023-03-29T11:20:43;2.15;;;1.70;;
20146;SDS011;10234;50.856;15.716;2023-03-29T11:23:24;2.33;;;1.60;;
20146;SDS011;10234;50.856;15.716;2023-03-29T11:26:03;5.68;;;1.60;;
20146;SDS011;10234;50.856;15.716;2023-03-29T11:28:39;3.17;;;1.50;;
20146;SDS011;10234;50.856;15.716;2023-03-29T11:31:16;2.28;;;1.20;;
20146;SDS011;10234;50.856;15.716;2023-03-29T11:37:17;2.88;;;1.35;;
20146;SDS011;10234;50.856;15.716;2023-03-29T11:39:53;2.63;;;1.00;;
20146;SDS011;10234;50.856;15.716;2023-03-29T11:42:30;3.38;;;1.17;;
20146;SDS011;10234;50.856;15.716;2023-03-29T11:45:00;2.40;;;1.35;;
20146;SDS011;10234;50.856;15.716;2023-03-29T11:47:30;1.65;;;1.00;;
20146;SDS011;10234;50.856;15.716;2023-03-29T11:50:02;1.33;;;1.10;;
20146;SDS011;10234;50.856;15.716;2023-03-29T11:52:34;2.85;;;1.50;;
20146;SDS011;10234;50.856;15.716;2023-03-29T11:55:06;2.63;;;1.27;;
20146;SDS011;10234;50.856;15.716;2023-03-29T11:57:37;2.63;;;1.27;;
20146;SDS011;10234;50.856;15.716;2023-03-29T12:00:09;2.40;;;1.77;;
20146;SDS011;10234;50.856;15.716;2023-03-29T12:02:43;1.98;;;1.50;;
20146;SDS011;10234;50.856;15.716;2023-03-29T12:05:17;2.15;;;1.38;;
20146;SDS011;10234;50.856;15.716;2023-03-29T12:07:49;1.35;;;1.20;;
20146;SDS011;10234;50.856;15.716;2023-03-29T12:10:21;3.40;;;1.20;;
20146;SDS011;10234;50.856;15.716;2023-03-29T12:12:54;2.08;;;1.48;;
20146;SDS011;10234;50.856;15.716;2023-03-29T12:15:26;1.80;;;1.10;;
20146;SDS011;10234;50.856;15.716;2023-03-29T12:18:02;1.38;;;1.10;;
20146;SDS011;10234;50.856;15.716;2023-03-29T12:20:34;2.35;;;1.23;;
20146;SDS011;10234;50.856;15.716;2023-03-29T12:23:05;1.90;;;1.20;;
20146;SDS011;10234;50.856;15.716;2023-03-29T12:25:36;3.47;;;1.20;;
20146;SDS011;10234;50.856;15.716;2023-03-29T12:28:17;3.60;;;1.10;;
20146;SDS011;10234;50.856;15.716;2023-03-29T12:30:55;1.17;;;0.95;;
20146;SDS011;10234;50.856;15.716;2023-03-29T12:33:33;3.45;;;1.45;;
20146;SDS011;10234;50.856;15.716;2023-03-29T12:36:16;3.90;;;1.05;;
20146;SDS011;10234;50.856;15.716;2023-03-29T12:38:57;1.17;;;0.80;;
20146;SDS011;10234;50.856;15.716;2023-03-29T12:41:25;1.50;;;0.90;;
20146;SDS011;10234;50.856;15.716;2023-03-29T12:43:53;1.75;;;1.20;;
20146;SDS011;10234;50.856;15.716;2023-03-29T12:46:30;1.17;;;1.08;;
20146;SDS011;10234;50.856;15.716;2023-03-29T12:48:59;1.45;;;1.08;;
20146;SDS011;10234;50.856;15.716;2023-03-29T12:51:33;1.30;;;1.00;;
20146;SDS011;10234;50.856;15.716;2023-03-29T12:54:07;1.05;;;0.90;;
20146;SDS011;10234;50.856;15.716;2023-03-29T12:56:39;1.75;;;1.13;;
20146;SDS011;10234;50.856;15.716;2023-03-29T12:59:23;1.60;;;1.42;;
20146;SDS011;10234;50.856;15.716;2023-03-29T13:01:56;3.05;;;1.20;;
20146;SDS011;10234;50.856;15.716;2023-03-29T13:04:34;1.90;;;1.33;;
20146;SDS011;10234;50.856;15.716;2023-03-29T13:07:03;3.35;;;1.45;;
20146;SDS011;10234;50.856;15.716;2023-03-29T13:09:45;1.67;;;0.80;;
20146;SDS011;10234;50.856;15.716;2023-03-29T13:12:17;3.53;;;2.03;;
20146;SDS011;10234;50.856;15.716;2023-03-29T13:14:49;4.25;;;2.40;;
20146;SDS011;10234;50.856;15.716;2023-03-29T13:17:21;6.18;;;3.35;;
20146;SDS011;10234;50.856;15.716;2023-03-29T13:19:55;4.43;;;2.42;;
20146;SDS011;10234;50.856;15.716;2023-03-29T13:22:40;2.22;;;1.50;;
20146;SDS011;10234;50.856;15.716;2023-03-29T13:25:21;1.50;;;1.40;;
20146;SDS011;10234;50.856;15.716;2023-03-29T13:28:04;2.63;;;1.60;;
20146;SDS011;10234;50.856;15.716;2023-03-29T13:30:45;2.63;;;1.92;;
20146;SDS011;10234;50.856;15.716;2023-03-29T13:36:14;2.45;;;1.67;;
20146;SDS011;10234;50.856;15.716;2023-03-29T13:38:48;1.98;;;1.70;;
20146;SDS011;10234;50.856;15.716;2023-03-29T13:41:26;2.42;;;2.17;;
20146;SDS011;10234;50.856;15.716;2023-03-29T13:43:57;2.53;;;1.40;;
20146;SDS011;10234;50.856;15.716;2023-03-29T13:46:34;3.78;;;2.15;;
20146;SDS011;10234;50.856;15.716;2023-03-29T13:49:03;3.90;;;2.35;;
20146;SDS011;10234;50.856;15.716;2023-03-29T13:51:39;6.65;;;3.65;;
20146;SDS011;10234;50.856;15.716;2023-03-29T13:54:12;6.25;;;5.05;;
20146;SDS011;10234;50.856;15.716;2023-03-29T13:56:52;4.75;;;3.38;;
20146;SDS011;10234;50.856;15.716;2023-03-29T13:59:26;3.58;;;2.58;;
20146;SDS011;10234;50.856;15.716;2023-03-29T14:02:00;8.63;;;4.80;;
20146;SDS011;10234;50.856;15.716;2023-03-29T14:04:30;6.28;;;4.80;;
20146;SDS011;10234;50.856;15.716;2023-03-29T14:07:02;6.22;;;3.90;;
20146;SDS011;10234;50.856;15.716;2023-03-29T14:09:32;6.88;;;4.50;;
20146;SDS011;10234;50.856;15.716;2023-03-29T14:12:07;3.72;;;2.83;;
20146;SDS011;10234;50.856;15.716;2023-03-29T14:14:38;3.88;;;2.70;;
20146;SDS011;10234;50.856;15.716;2023-03-29T14:17:09;4.18;;;3.03;;
20146;SDS011;10234;50.856;15.716;2023-03-29T14:19:41;22.98;;;10.48;;
20146;SDS011;10234;50.856;15.716;2023-03-29T14:22:11;13.70;;;7.45;;
20146;SDS011;10234;50.856;15.716;2023-03-29T14:24:43;8.55;;;4.72;;
20146;SDS011;10234;50.856;15.716;2023-03-29T14:27:15;26.58;;;10.45;;
20146;SDS011;10234;50.856;15.716;2023-03-29T14:29:44;7.38;;;4.20;;
20146;SDS011;10234;50.856;15.716;2023-03-29T14:32:12;4.53;;;2.83;;
20146;SDS011;10234;50.856;15.716;2023-03-29T14:34:41;3.30;;;2.58;;
20146;SDS011;10234;50.856;15.716;2023-03-29T14:37:10;6.18;;;2.75;;
20146;SDS011;10234;50.856;15.716;2023-03-29T14:39:37;3.45;;;2.78;;
20146;SDS011;10234;50.856;15.716;2023-03-29T14:42:09;5.32;;;3.22;;
20146;SDS011;10234;50.856;15.716;2023-03-29T14:44:44;4.15;;;2.78;;
20146;SDS011;10234;50.856;15.716;2023-03-29T14:47:14;3.88;;;2.60;;
20146;SDS011;10234;50.856;15.716;2023-03-29T14:49:46;7.03;;;3.72;;
20146;SDS011;10234;50.856;15.716;2023-03-29T14:52:13;9.07;;;6.03;;
20146;SDS011;10234;50.856;15.716;2023-03-29T14:54:42;4.63;;;3.50;;
20146;SDS011;10234;50.856;15.716;2023-03-29T14:57:12;6.32;;;3.05;;
20146;SDS011;10234;50.856;15.716;2023-03-29T14:59:42;6.05;;;3.17;;